Akebono — JG5644 — position and weather

sailwx.info

Track history (hours):
 
Tides and Currents Weather Stations Pressure Air Temp Water Temp Dewpoint Dewpoint Depression Visibility Wind Speed Wind Dir Waves Ship Positions

Akebono

Last reported at 2015-Jan-30 01:33 UTC. Time now 2015-Jan-30 02:36 UTC.
Position N 35°27' E 139°42'.

Length 33 m; draft 4.4 m.

Type: Tug. MMSI: 431000233.

Date/timePositionNaut miles runAvg speedWind from/ knotsBaromVisibWave heightAir tempDewpointWater temp
2015-Jan-30 01:33N 35°27' E 139°42'0 0.0
2015-Jan-30 00:34N 35°27' E 139°42'0 0.1
2015-Jan-29 23:33N 35°27' E 139°42'1 0.8
2015-Jan-29 22:34N 35°26' E 139°43'4 3.7
2015-Jan-29 21:34N 35°28' E 139°38'0 0.0
2015-Jan-29 07:06N 35°27' E 139°38'0 0.0
2015-Jan-29 06:33N 35°27' E 139°38'0 0.0
2015-Jan-29 05:34N 35°27' E 139°38'0 0.0
2015-Jan-29 04:34N 35°27' E 139°38'0 0.0
2015-Jan-29 03:34N 35°27' E 139°38'0 0.0
2015-Jan-29 02:33N 35°27' E 139°38'4 3.6
2015-Jan-29 01:33N 35°24' E 139°39'1 0.7
2015-Jan-29 00:33N 35°24' E 139°38'2 1.5
2015-Jan-28 23:33N 35°23' E 139°40'2 2.1
2015-Jan-28 22:34N 35°25' E 139°41'1 0.9
2015-Jan-28 21:34N 35°25' E 139°42'3 3.4
2015-Jan-28 20:34N 35°27' E 139°38'0 0.0
2015-Jan-28 11:33N 35°28' E 139°39'2 2.2
2015-Jan-28 10:33N 35°28' E 139°42'1 1.0
2015-Jan-28 09:33N 35°28' E 139°40'3 3.0
2015-Jan-28 08:33N 35°26' E 139°43'3 2.7
2015-Jan-28 07:33N 35°24' E 139°41'1 0.6
2015-Jan-28 06:33N 35°24' E 139°41'1 1.0
2015-Jan-28 05:34N 35°23' E 139°40'0 0.0
2015-Jan-28 04:33N 35°23' E 139°40'1 1.4
2015-Jan-28 03:33N 35°24' E 139°38'0 0.0
2015-Jan-28 02:33N 35°24' E 139°38'3 2.6
2015-Jan-28 01:34N 35°23' E 139°41'4 3.7
2015-Jan-28 00:34N 35°26' E 139°42'3 2.7
2015-Jan-27 23:34N 35°27' E 139°38'0 0.0
2015-Jan-27 22:34N 35°27' E 139°38'4 0.2
2015-Jan-27 00:33N 35°29' E 139°43'3 2.9
2015-Jan-26 23:33N 35°31' E 139°46'5 4.6
2015-Jan-26 22:33N 35°27' E 139°43'1 1.2
2015-Jan-26 21:33N 35°28' E 139°44'2 1.6
2015-Jan-26 20:33N 35°27' E 139°43'0 0.0
2015-Jan-26 19:33N 35°27' E 139°43'0 0.0
2015-Jan-26 18:33N 35°27' E 139°43'0 0.0
2015-Jan-26 17:33N 35°27' E 139°43'2 1.9
2015-Jan-26 16:33N 35°26' E 139°41'1 1.3
2015-Jan-26 15:33N 35°27' E 139°42'1 1.0
2015-Jan-26 14:33N 35°28' E 139°42'1 1.1
2015-Jan-26 13:33N 35°28' E 139°40'4 3.6
2015-Jan-26 12:34N 35°24' E 139°41'2 2.0
2015-Jan-26 11:34N 35°26' E 139°42'2 1.6
2015-Jan-26 10:34N 35°27' E 139°43'1 1.2
2015-Jan-26 09:33N 35°28' E 139°42'3 2.7
2015-Jan-26 08:33N 35°27' E 139°38'0 0.0
2015-Jan-26 07:33N 35°27' E 139°38'0 0.0
2015-Jan-26 06:33N 35°27' E 139°38'0 0.0
2015-Jan-26 05:33N 35°27' E 139°38'0 0.0
2015-Jan-26 04:33N 35°27' E 139°38'0 0.0
2015-Jan-26 03:33N 35°27' E 139°38'2 2.2
2015-Jan-26 02:33N 35°27' E 139°41'3 3.3
2015-Jan-26 01:33N 35°29' E 139°45'1 1.0
2015-Jan-26 00:33N 35°28' E 139°45'3 2.7
2015-Jan-25 23:33N 35°27' E 139°43'0 0.0
2015-Jan-25 22:33N 35°27' E 139°43'2 2.3
2015-Jan-25 21:33N 35°27' E 139°40'1 1.1
2015-Jan-25 20:33N 35°27' E 139°38'0 0.0
2015-Jan-25 07:10N 35°27' E 139°38'0 0.0
2015-Jan-25 06:33N 35°27' E 139°38'0 0.0
2015-Jan-25 05:33N 35°27' E 139°38'0 0.0
2015-Jan-25 04:33N 35°27' E 139°38'0 0.0
2015-Jan-25 03:33N 35°27' E 139°38'0 0.0
2015-Jan-25 02:33N 35°27' E 139°38'3 3.0
2015-Jan-25 01:33N 35°26' E 139°42'3 3.5
2015-Jan-25 00:33N 35°24' E 139°38'1 1.4
2015-Jan-24 23:33N 35°24' E 139°40'3 3.4
2015-Jan-24 22:33N 35°27' E 139°41'2 1.9
2015-Jan-24 21:33N 35°25' E 139°42'4 3.9
2015-Jan-24 20:33N 35°27' E 139°38'2 0.1
2015-Jan-24 08:34N 35°27' E 139°40'1 1.1
2015-Jan-24 07:33N 35°26' E 139°41'2 2.2
2015-Jan-24 06:33N 35°27' E 139°38'0 0.0
2015-Jan-24 05:33N 35°27' E 139°38'1 1.0
2015-Jan-24 04:33N 35°27' E 139°40'4 3.7
2015-Jan-24 03:34N 35°24' E 139°38'0 0.0
2015-Jan-24 02:34N 35°24' E 139°38'3 3.0
2015-Jan-24 01:33N 35°23' E 139°41'5 4.7
2015-Jan-24 00:34N 35°27' E 139°40'1 0.5
2015-Jan-23 23:34N 35°27' E 139°39'2 2.5
2015-Jan-23 22:33N 35°26' E 139°42'1 1.3
2015-Jan-23 21:33N 35°26' E 139°41'2 2.2
2015-Jan-23 20:33N 35°27' E 139°38'1 0.0
2015-Jan-23 06:33N 35°27' E 139°39'0 0.3
2015-Jan-23 05:33N 35°27' E 139°39'0 0.1
2015-Jan-23 04:34N 35°27' E 139°39'4 3.5
2015-Jan-23 03:33N 35°26' E 139°43'4 4.4
2015-Jan-23 02:33N 35°27' E 139°38'0 0.0
2015-Jan-23 01:33N 35°27' E 139°38'0 0.0
2015-Jan-23 00:33N 35°27' E 139°38'0 0.0
2015-Jan-22 23:33N 35°27' E 139°38'0 0.0
2015-Jan-22 22:33N 35°27' E 139°38'0 0.0
2015-Jan-22 21:33N 35°27' E 139°38'0 0.0
2015-Jan-22 20:33N 35°27' E 139°38'0 0.0
2015-Jan-22 19:33N 35°27' E 139°38'0 0.0
2015-Jan-22 18:33N 35°27' E 139°38'0 0.0
2015-Jan-22 07:26N 35°27' E 139°38'7 7.9
2015-Jan-22 06:32N 35°31' E 139°46'1 1.2
2015-Jan-22 05:33N 35°30' E 139°47'4 3.8
2015-Jan-22 04:33N 35°28' E 139°44'3 3.5
2015-Jan-22 03:33N 35°27' E 139°39'0 0.0
2015-Jan-22 02:33N 35°27' E 139°39'3 2.6
2015-Jan-22 01:33N 35°25' E 139°42'3 3.4
2015-Jan-22 00:33N 35°24' E 139°38'3 3.2
2015-Jan-21 23:33N 35°24' E 139°42'4 5.8
2015-Jan-21 22:50N 35°27' E 139°39'0 0.0
2015-Jan-21 22:46N 35°27' E 139°39'0 0.0
2015-Jan-21 22:33N 35°27' E 139°39'1 0.1
2015-Jan-21 09:33N 35°28' E 139°40'2 2.0
2015-Jan-21 08:33N 35°28' E 139°43'3 3.4
2015-Jan-21 07:33N 35°27' E 139°38'0 0.0
2015-Jan-21 06:33N 35°27' E 139°38'2 0.9
2015-Jan-21 04:34N 35°27' E 139°41'4 3.9
2015-Jan-21 03:34N 35°24' E 139°38'0 0.0
2015-Jan-21 02:34N 35°24' E 139°38'3 2.9
2015-Jan-21 01:34N 35°23' E 139°41'1 0.6
2015-Jan-21 00:34N 35°23' E 139°41'0 0.0
2015-Jan-20 23:33N 35°23' E 139°41'3 2.8
2015-Jan-20 22:33N 35°25' E 139°41'1 1.0
2015-Jan-20 21:34N 35°25' E 139°42'3 3.4
2015-Jan-20 20:33N 35°27' E 139°38'0 0.0
2015-Jan-20 06:19N 35°27' E 139°38'0 0.0
2015-Jan-20 05:33N 35°27' E 139°38'0 0.0
2015-Jan-20 04:33N 35°27' E 139°38'0 0.0
2015-Jan-20 03:33N 35°27' E 139°38'0 0.0
2015-Jan-20 02:33N 35°27' E 139°38'  
Track history (hours):
 
Tides and Currents Weather Stations Pressure Air Temp Water Temp Dewpoint Dewpoint Depression Visibility Wind Speed Wind Dir Waves Ship Positions

Akebono

Last reported at 2015-Jan-30 01:33 UTC. Time now 2015-Jan-30 02:36 UTC.
Position N 35°27' E 139°42'.

Length 33 m; draft 4.4 m.

Type: Tug. MMSI: 431000233.

Date/timePositionNaut miles runAvg speedWind from/ knotsBaromVisibWave heightAir tempDewpointWater temp
2015-Jan-30 01:33N 35°27' E 139°42'0 0.0
2015-Jan-30 00:34N 35°27' E 139°42'0 0.1
2015-Jan-29 23:33N 35°27' E 139°42'1 0.8
2015-Jan-29 22:34N 35°26' E 139°43'4 3.7
2015-Jan-29 21:34N 35°28' E 139°38'0 0.0
2015-Jan-29 07:06N 35°27' E 139°38'0 0.0
2015-Jan-29 06:33N 35°27' E 139°38'0 0.0
2015-Jan-29 05:34N 35°27' E 139°38'0 0.0
2015-Jan-29 04:34N 35°27' E 139°38'0 0.0
2015-Jan-29 03:34N 35°27' E 139°38'0 0.0
2015-Jan-29 02:33N 35°27' E 139°38'4 3.6
2015-Jan-29 01:33N 35°24' E 139°39'1 0.7
2015-Jan-29 00:33N 35°24' E 139°38'2 1.5
2015-Jan-28 23:33N 35°23' E 139°40'2 2.1
2015-Jan-28 22:34N 35°25' E 139°41'1 0.9
2015-Jan-28 21:34N 35°25' E 139°42'3 3.4
2015-Jan-28 20:34N 35°27' E 139°38'0 0.0
2015-Jan-28 11:33N 35°28' E 139°39'2 2.2
2015-Jan-28 10:33N 35°28' E 139°42'1 1.0
2015-Jan-28 09:33N 35°28' E 139°40'3 3.0
2015-Jan-28 08:33N 35°26' E 139°43'3 2.7
2015-Jan-28 07:33N 35°24' E 139°41'1 0.6
2015-Jan-28 06:33N 35°24' E 139°41'1 1.0
2015-Jan-28 05:34N 35°23' E 139°40'0 0.0
2015-Jan-28 04:33N 35°23' E 139°40'1 1.4
2015-Jan-28 03:33N 35°24' E 139°38'0 0.0
2015-Jan-28 02:33N 35°24' E 139°38'3 2.6
2015-Jan-28 01:34N 35°23' E 139°41'4 3.7
2015-Jan-28 00:34N 35°26' E 139°42'3 2.7
2015-Jan-27 23:34N 35°27' E 139°38'0 0.0
2015-Jan-27 22:34N 35°27' E 139°38'4 0.2
2015-Jan-27 00:33N 35°29' E 139°43'3 2.9
2015-Jan-26 23:33N 35°31' E 139°46'5 4.6
2015-Jan-26 22:33N 35°27' E 139°43'1 1.2
2015-Jan-26 21:33N 35°28' E 139°44'2 1.6
2015-Jan-26 20:33N 35°27' E 139°43'0 0.0
2015-Jan-26 19:33N 35°27' E 139°43'0 0.0
2015-Jan-26 18:33N 35°27' E 139°43'0 0.0
2015-Jan-26 17:33N 35°27' E 139°43'2 1.9
2015-Jan-26 16:33N 35°26' E 139°41'1 1.3
2015-Jan-26 15:33N 35°27' E 139°42'1 1.0
2015-Jan-26 14:33N 35°28' E 139°42'1 1.1
2015-Jan-26 13:33N 35°28' E 139°40'4 3.6
2015-Jan-26 12:34N 35°24' E 139°41'2 2.0
2015-Jan-26 11:34N 35°26' E 139°42'2 1.6
2015-Jan-26 10:34N 35°27' E 139°43'1 1.2
2015-Jan-26 09:33N 35°28' E 139°42'3 2.7
2015-Jan-26 08:33N 35°27' E 139°38'0 0.0
2015-Jan-26 07:33N 35°27' E 139°38'0 0.0
2015-Jan-26 06:33N 35°27' E 139°38'0 0.0
2015-Jan-26 05:33N 35°27' E 139°38'0 0.0
2015-Jan-26 04:33N 35°27' E 139°38'0 0.0
2015-Jan-26 03:33N 35°27' E 139°38'2 2.2
2015-Jan-26 02:33N 35°27' E 139°41'3 3.3
2015-Jan-26 01:33N 35°29' E 139°45'1 1.0
2015-Jan-26 00:33N 35°28' E 139°45'3 2.7
2015-Jan-25 23:33N 35°27' E 139°43'0 0.0
2015-Jan-25 22:33N 35°27' E 139°43'2 2.3
2015-Jan-25 21:33N 35°27' E 139°40'1 1.1
2015-Jan-25 20:33N 35°27' E 139°38'0 0.0
2015-Jan-25 07:10N 35°27' E 139°38'0 0.0
2015-Jan-25 06:33N 35°27' E 139°38'0 0.0
2015-Jan-25 05:33N 35°27' E 139°38'0 0.0
2015-Jan-25 04:33N 35°27' E 139°38'0 0.0
2015-Jan-25 03:33N 35°27' E 139°38'0 0.0
2015-Jan-25 02:33N 35°27' E 139°38'3 3.0
2015-Jan-25 01:33N 35°26' E 139°42'3 3.5
2015-Jan-25 00:33N 35°24' E 139°38'1 1.4
2015-Jan-24 23:33N 35°24' E 139°40'3 3.4
2015-Jan-24 22:33N 35°27' E 139°41'2 1.9
2015-Jan-24 21:33N 35°25' E 139°42'4 3.9
2015-Jan-24 20:33N 35°27' E 139°38'2 0.1
2015-Jan-24 08:34N 35°27' E 139°40'1 1.1
2015-Jan-24 07:33N 35°26' E 139°41'2 2.2
2015-Jan-24 06:33N 35°27' E 139°38'0 0.0
2015-Jan-24 05:33N 35°27' E 139°38'1 1.0
2015-Jan-24 04:33N 35°27' E 139°40'4 3.7
2015-Jan-24 03:34N 35°24' E 139°38'0 0.0
2015-Jan-24 02:34N 35°24' E 139°38'3 3.0
2015-Jan-24 01:33N 35°23' E 139°41'5 4.7
2015-Jan-24 00:34N 35°27' E 139°40'1 0.5
2015-Jan-23 23:34N 35°27' E 139°39'2 2.5
2015-Jan-23 22:33N 35°26' E 139°42'1 1.3
2015-Jan-23 21:33N 35°26' E 139°41'2 2.2
2015-Jan-23 20:33N 35°27' E 139°38'1 0.0
2015-Jan-23 06:33N 35°27' E 139°39'0 0.3
2015-Jan-23 05:33N 35°27' E 139°39'0 0.1
2015-Jan-23 04:34N 35°27' E 139°39'4 3.5
2015-Jan-23 03:33N 35°26' E 139°43'4 4.4
2015-Jan-23 02:33N 35°27' E 139°38'0 0.0
2015-Jan-23 01:33N 35°27' E 139°38'0 0.0
2015-Jan-23 00:33N 35°27' E 139°38'0 0.0
2015-Jan-22 23:33N 35°27' E 139°38'0 0.0
2015-Jan-22 22:33N 35°27' E 139°38'0 0.0
2015-Jan-22 21:33N 35°27' E 139°38'0 0.0
2015-Jan-22 20:33N 35°27' E 139°38'0 0.0
2015-Jan-22 19:33N 35°27' E 139°38'0 0.0
2015-Jan-22 18:33N 35°27' E 139°38'0 0.0
2015-Jan-22 07:26N 35°27' E 139°38'7 7.9
2015-Jan-22 06:32N 35°31' E 139°46'1 1.2
2015-Jan-22 05:33N 35°30' E 139°47'4 3.8
2015-Jan-22 04:33N 35°28' E 139°44'3 3.5
2015-Jan-22 03:33N 35°27' E 139°39'0 0.0
2015-Jan-22 02:33N 35°27' E 139°39'3 2.6
2015-Jan-22 01:33N 35°25' E 139°42'3 3.4
2015-Jan-22 00:33N 35°24' E 139°38'3 3.2
2015-Jan-21 23:33N 35°24' E 139°42'4 5.8
2015-Jan-21 22:50N 35°27' E 139°39'0 0.0
2015-Jan-21 22:46N 35°27' E 139°39'0 0.0
2015-Jan-21 22:33N 35°27' E 139°39'1 0.1
2015-Jan-21 09:33N 35°28' E 139°40'2 2.0
2015-Jan-21 08:33N 35°28' E 139°43'3 3.4
2015-Jan-21 07:33N 35°27' E 139°38'0 0.0
2015-Jan-21 06:33N 35°27' E 139°38'2 0.9
2015-Jan-21 04:34N 35°27' E 139°41'4 3.9
2015-Jan-21 03:34N 35°24' E 139°38'0 0.0
2015-Jan-21 02:34N 35°24' E 139°38'3 2.9
2015-Jan-21 01:34N 35°23' E 139°41'1 0.6
2015-Jan-21 00:34N 35°23' E 139°41'0 0.0
2015-Jan-20 23:33N 35°23' E 139°41'3 2.8
2015-Jan-20 22:33N 35°25' E 139°41'1 1.0
2015-Jan-20 21:34N 35°25' E 139°42'3 3.4
2015-Jan-20 20:33N 35°27' E 139°38'0 0.0
2015-Jan-20 06:19N 35°27' E 139°38'0 0.0
2015-Jan-20 05:33N 35°27' E 139°38'0 0.0
2015-Jan-20 04:33N 35°27' E 139°38'0 0.0
2015-Jan-20 03:33N 35°27' E 139°38'0 0.0
2015-Jan-20 02:33N 35°27' E 139°38'  

Dump ship's entire track history